Time;durP1;ratioP1;P1;durP2;ratioP2;P2;SDS_P1;SDS_P2;PMS_P1;PMS_P2;Temp;Humidity;BMP_temperature;BMP_pressure;BME280_temperature;BME280_humidity;BME280_pressure;Samples;Min_cycle;Max_cycle;Signal;HPM_P1;HPM_P2
2022/04/24 00:02:12;;;;;;;15.45;11.02;;;10.10;99.90;;;;;;5098167;28;20480;-67
2022/04/24 00:04:40;;;;;;;13.77;9.85;;;10.10;99.90;;;;;;5096144;28;20596;-67
2022/04/24 00:07:08;;;;;;;13.93;9.63;;;10.00;99.90;;;;;;5091428;28;20044;-67
2022/04/24 00:09:37;;;;;;;14.63;10.05;;;10.10;99.90;;;;;;5091959;28;20507;-67
2022/04/24 00:12:06;;;;;;;13.07;9.07;;;10.00;99.90;;;;;;5089758;28;20471;-67
2022/04/24 00:14:34;;;;;;;13.95;10.05;;;10.00;99.90;;;;;;5102451;28;20063;-67
2022/04/24 00:17:02;;;;;;;13.82;9.95;;;10.00;99.90;;;;;;5107855;27;20490;-67
2022/04/24 00:19:30;;;;;;;14.45;10.23;;;10.10;99.90;;;;;;5110201;28;20041;-67
2022/04/24 00:21:57;;;;;;;13.52;10.25;;;10.10;99.90;;;;;;5107227;28;20046;-67
2022/04/24 00:24:25;;;;;;;12.80;9.48;;;10.10;99.90;;;;;;5107780;28;20563;-67
2022/04/24 00:26:54;;;;;;;15.00;10.07;;;10.00;99.90;;;;;;5107555;28;20088;-66
2022/04/24 00:29:21;;;;;;;14.15;10.52;;;10.00;99.90;;;;;;5107546;28;20067;-66
2022/04/24 00:31:49;;;;;;;12.00;9.10;;;10.00;99.90;;;;;;5097541;28;20111;-66
2022/04/24 00:34:16;;;;;;;13.65;9.05;;;10.00;99.90;;;;;;5098922;28;20810;-66
2022/04/24 00:36:45;;;;;;;13.35;9.63;;;10.00;99.90;;;;;;5103138;28;20466;-66
2022/04/24 00:39:13;;;;;;;14.10;9.63;;;9.90;99.90;;;;;;5095092;28;20042;-67
2022/04/24 00:41:49;;;;;;;13.93;9.85;;;9.90;99.90;;;;;;5108801;28;20067;-67
2022/04/24 00:44:17;;;;;;;13.95;9.98;;;9.90;99.90;;;;;;5108911;28;20118;-66
2022/04/24 00:47:11;;;;;;;12.90;9.57;;;9.90;99.90;;;;;;5104691;28;20047;-67
2022/04/24 00:49:40;;;;;;;15.27;10.50;;;9.90;99.90;;;;;;5106282;28;20505;-66
2022/04/24 00:52:09;;;;;;;13.50;10.02;;;9.80;99.90;;;;;;5101635;28;20047;-66
2022/04/24 00:54:37;;;;;;;14.02;10.32;;;9.80;99.90;;;;;;5107591;28;20048;-67
2022/04/24 00:57:09;;;;;;;13.52;10.15;;;9.80;99.90;;;;;;5105980;28;20051;-67
2022/04/24 00:59:40;;;;;;;14.68;10.55;;;9.80;99.90;;;;;;5113150;27;20088;-67
2022/04/24 01:02:08;;;;;;;17.38;11.48;;;9.80;99.90;;;;;;5109337;27;20039;-67
2022/04/24 01:04:37;;;;;;;15.32;10.90;;;9.90;99.90;;;;;;5093972;28;20135;-67
2022/04/24 01:07:05;;;;;;;16.33;11.75;;;9.80;99.90;;;;;;5096937;28;20040;-67
2022/04/24 01:09:35;;;;;;;14.80;10.85;;;9.80;99.90;;;;;;5089230;28;20408;-66
2022/04/24 01:12:03;;;;;;;17.08;12.27;;;9.80;99.90;;;;;;5094228;28;20108;-67
2022/04/24 01:14:32;;;;;;;17.33;12.05;;;9.80;99.90;;;;;;5094220;28;20044;-67
2022/04/24 01:17:01;;;;;;;17.02;12.20;;;9.80;99.90;;;;;;5107898;27;20078;-67
2022/04/24 01:19:29;;;;;;;16.73;12.10;;;9.80;99.90;;;;;;5109054;28;20036;-67
2022/04/24 01:21:57;;;;;;;15.68;11.25;;;9.80;99.90;;;;;;5090134;28;20078;-67
2022/04/24 01:24:27;;;;;;;19.50;13.07;;;9.70;99.90;;;;;;5106115;28;20130;-67
2022/04/24 01:26:54;;;;;;;15.77;11.43;;;9.70;99.90;;;;;;5103714;28;20069;-67
2022/04/24 01:29:22;;;;;;;18.70;12.43;;;9.70;99.90;;;;;;5107060;28;20048;-67
2022/04/24 01:31:49;;;;;;;17.67;12.38;;;9.70;99.90;;;;;;5103839;28;20042;-67
2022/04/24 01:34:18;;;;;;;17.52;13.00;;;9.60;99.90;;;;;;5106450;28;20542;-67
2022/04/24 01:36:46;;;;;;;17.75;13.15;;;9.70;99.90;;;;;;5107375;28;20432;-66
2022/04/24 01:39:17;;;;;;;16.35;11.82;;;9.70;99.90;;;;;;5106247;28;20554;-66
2022/04/24 01:41:45;;;;;;;20.25;13.90;;;9.70;99.90;;;;;;5105619;28;20065;-66
2022/04/24 01:44:12;;;;;;;17.88;13.13;;;9.60;99.90;;;;;;5106667;28;20040;-66
2022/04/24 01:46:40;;;;;;;17.80;12.55;;;9.60;99.90;;;;;;5095721;28;20051;-66
2022/04/24 01:49:07;;;;;;;17.25;12.70;;;9.60;99.90;;;;;;5103207;28;20051;-67
2022/04/24 01:51:34;;;;;;;17.42;12.70;;;9.60;99.90;;;;;;5106405;28;20048;-67
2022/04/24 01:54:02;;;;;;;18.40;13.02;;;9.60;99.90;;;;;;5104104;28;20077;-66
2022/04/24 01:56:29;;;;;;;18.17;13.57;;;9.60;99.90;;;;;;5105097;28;20062;-66
2022/04/24 01:58:56;;;;;;;19.27;13.82;;;9.70;99.90;;;;;;5098426;27;20046;-66
2022/04/24 02:01:24;;;;;;;18.92;13.95;;;9.70;99.90;;;;;;5103208;28;20122;-67
2022/04/24 02:03:52;;;;;;;19.38;13.68;;;9.80;99.90;;;;;;5098460;28;20048;-66
2022/04/24 02:06:19;;;;;;;18.40;13.93;;;9.80;99.90;;;;;;5103519;28;20044;-66
2022/04/24 02:08:46;;;;;;;19.75;14.07;;;9.80;99.90;;;;;;5097436;28;20143;-67
2022/04/24 02:11:14;;;;;;;26.20;17.52;;;9.90;99.90;;;;;;5086812;28;20048;-66
2022/04/24 02:13:41;;;;;;;22.00;15.50;;;9.90;99.90;;;;;;5107108;28;20124;-66
2022/04/24 02:16:08;;;;;;;23.67;15.60;;;9.90;99.90;;;;;;5107645;28;20048;-67
2022/04/24 02:18:36;;;;;;;21.02;14.38;;;10.00;99.90;;;;;;5104774;28;20493;-66
2022/04/24 02:21:03;;;;;;;20.70;14.63;;;10.10;99.90;;;;;;5106122;28;20043;-66
2022/04/24 02:23:32;;;;;;;20.38;14.20;;;10.10;99.90;;;;;;5106862;28;20126;-66
2022/04/24 02:25:59;;;;;;;20.45;15.13;;;10.10;99.90;;;;;;5112477;28;20043;-66
2022/04/24 02:28:26;;;;;;;23.05;15.20;;;10.20;99.90;;;;;;5108370;28;20063;-66
2022/04/24 02:30:53;;;;;;;22.00;15.75;;;10.20;99.90;;;;;;5110239;28;20047;-66
2022/04/24 02:33:21;;;;;;;22.13;14.27;;;10.20;99.90;;;;;;5107758;28;20082;-66
2022/04/24 02:35:48;;;;;;;19.52;14.18;;;10.20;99.90;;;;;;5108253;28;20036;-67
2022/04/24 02:38:15;;;;;;;23.35;14.65;;;10.20;99.90;;;;;;5111629;28;20054;-67
2022/04/24 02:40:43;;;;;;;20.88;14.77;;;10.30;99.90;;;;;;5111123;28;20039;-67
2022/04/24 02:43:10;;;;;;;22.35;15.68;;;10.30;99.90;;;;;;5109248;28;20147;-67
2022/04/24 02:45:37;;;;;;;22.65;15.73;;;10.30;99.90;;;;;;5109015;28;20053;-66
2022/04/24 02:48:05;;;;;;;20.48;14.27;;;10.30;99.90;;;;;;5113498;28;20239;-66
2022/04/24 02:50:32;;;;;;;21.77;15.85;;;10.30;99.90;;;;;;5110676;28;20040;-66
2022/04/24 02:53:00;;;;;;;23.27;16.55;;;10.30;99.90;;;;;;5111721;28;20153;-66
2022/04/24 02:55:27;;;;;;;19.48;14.15;;;10.30;99.90;;;;;;5111847;28;20047;-66
2022/04/24 02:57:55;;;;;;;21.60;15.55;;;10.30;99.90;;;;;;5114079;27;20088;-66
2022/04/24 03:00:27;;;;;;;23.70;17.25;;;10.30;99.90;;;;;;5100350;28;20138;-66
2022/04/24 03:02:54;;;;;;;;;;;10.30;99.90;;;;;;5104998;28;20039;-66
2022/04/24 03:05:23;;;;;;;20.92;14.95;;;10.30;99.90;;;;;;5110456;28;20437;-66
2022/04/24 03:07:51;;;;;;;24.33;15.88;;;10.30;99.90;;;;;;5105786;28;20425;-66
2022/04/24 03:10:19;;;;;;;20.48;15.07;;;10.30;99.90;;;;;;5111184;28;20063;-66
2022/04/24 03:12:46;;;;;;;22.80;15.68;;;10.30;99.90;;;;;;5111628;28;20514;-66
2022/04/24 03:15:14;;;;;;;22.75;16.63;;;10.30;99.90;;;;;;5111372;28;20091;-66
2022/04/24 03:17:42;;;;;;;24.98;16.48;;;10.30;99.90;;;;;;5110073;28;20484;-66
2022/04/24 03:20:11;;;;;;;23.38;16.42;;;10.30;99.90;;;;;;5111210;28;20097;-66
2022/04/24 03:22:39;;;;;;;25.70;17.02;;;10.30;99.90;;;;;;5110223;28;20446;-66
2022/04/24 03:25:09;;;;;;;22.52;16.17;;;10.30;99.90;;;;;;5112636;28;20078;-67
2022/04/24 03:27:37;;;;;;;24.38;17.27;;;10.30;99.90;;;;;;5111466;28;20391;-67
2022/04/24 03:30:06;;;;;;;26.13;16.80;;;10.30;99.90;;;;;;5111107;28;20039;-66
2022/04/24 03:32:34;;;;;;;23.10;16.38;;;10.30;99.90;;;;;;5109063;28;20054;-66
2022/04/24 03:35:03;;;;;;;22.60;15.30;;;10.30;99.90;;;;;;5100086;28;20130;-66
2022/04/24 03:37:30;;;;;;;22.33;16.15;;;10.30;99.90;;;;;;5104823;28;20054;-66
2022/04/24 03:39:58;;;;;;;24.38;16.88;;;10.30;99.90;;;;;;5109451;28;20175;-66
2022/04/24 03:42:26;;;;;;;23.08;17.17;;;10.20;99.90;;;;;;5109220;28;20048;-66
2022/04/24 03:44:57;;;;;;;23.98;16.77;;;10.30;99.90;;;;;;5111875;28;20130;-66
2022/04/24 03:47:25;;;;;;;23.55;15.85;;;10.30;99.90;;;;;;5111289;28;20130;-66
2022/04/24 03:49:52;;;;;;;24.80;16.85;;;10.30;99.90;;;;;;5100233;28;20047;-66
2022/04/24 03:52:20;;;;;;;23.65;17.20;;;10.30;99.90;;;;;;5109127;28;20043;-66
2022/04/24 03:54:47;;;;;;;23.75;16.35;;;10.30;99.90;;;;;;5101840;28;20044;-66
2022/04/24 03:57:14;;;;;;;24.58;17.33;;;10.30;99.90;;;;;;5104633;28;20062;-66
2022/04/24 03:59:41;;;;;;;23.95;16.20;;;10.30;99.90;;;;;;5108660;27;20050;-66
2022/04/24 04:02:09;;;;;;;22.08;15.93;;;10.30;99.90;;;;;;5087959;28;20443;-66
2022/04/24 04:04:36;;;;;;;23.52;16.52;;;10.40;99.90;;;;;;5089537;28;20540;-66
2022/04/24 04:07:05;;;;;;;23.88;16.15;;;10.40;99.90;;;;;;5088971;28;20044;-66
2022/04/24 04:09:32;;;;;;;23.42;15.95;;;10.40;99.90;;;;;;5103986;28;20466;-66
2022/04/24 04:12:00;;;;;;;22.42;15.57;;;10.40;99.90;;;;;;5087527;28;20125;-66
2022/04/24 04:14:28;;;;;;;25.13;16.35;;;10.30;99.90;;;;;;5089918;28;20089;-66
2022/04/24 04:16:55;;;;;;;26.60;16.25;;;10.40;99.90;;;;;;5093950;28;20489;-67
2022/04/24 04:19:23;;;;;;;24.65;17.65;;;10.40;99.90;;;;;;5092894;28;20108;-67
2022/04/24 04:21:50;;;;;;;23.10;16.88;;;10.40;99.90;;;;;;5104690;28;20044;-66
2022/04/24 04:24:17;;;;;;;23.88;16.33;;;10.40;99.90;;;;;;5093051;28;20032;-66
2022/04/24 04:26:45;;;;;;;23.80;16.42;;;10.40;99.90;;;;;;5095894;28;20040;-66
2022/04/24 04:29:12;;;;;;;24.15;16.92;;;10.50;99.90;;;;;;5088350;28;20113;-67
2022/04/24 04:31:39;;;;;;;21.83;16.02;;;10.50;99.90;;;;;;5102963;28;20039;-66
2022/04/24 04:34:06;;;;;;;25.13;16.98;;;10.50;99.90;;;;;;5102220;28;20435;-66
2022/04/24 04:36:34;;;;;;;22.40;15.43;;;10.50;99.90;;;;;;5104871;28;20139;-66
2022/04/24 04:39:01;;;;;;;25.35;17.67;;;10.60;99.90;;;;;;5108335;28;20143;-66
2022/04/24 04:41:29;;;;;;;25.38;15.77;;;10.60;99.90;;;;;;5107073;28;20146;-66
2022/04/24 04:43:56;;;;;;;23.40;16.83;;;10.60;99.90;;;;;;5110701;27;20052;-66
2022/04/24 04:46:23;;;;;;;27.48;18.15;;;10.60;99.90;;;;;;5110155;28;20379;-67
2022/04/24 04:48:50;;;;;;;28.75;18.60;;;10.60;99.90;;;;;;5110735;28;20043;-67
2022/04/24 04:51:18;;;;;;;23.55;17.20;;;10.60;99.90;;;;;;5103930;28;20040;-67
2022/04/24 04:53:45;;;;;;;28.52;18.63;;;10.60;99.90;;;;;;5111311;28;20131;-67
2022/04/24 04:56:13;;;;;;;25.50;18.45;;;10.60;99.90;;;;;;5110096;28;20027;-68
2022/04/24 04:58:40;;;;;;;26.92;18.88;;;10.60;99.90;;;;;;5114734;27;20035;-67
2022/04/24 05:01:07;;;;;;;26.20;18.58;;;10.60;99.90;;;;;;5093278;28;20077;-67
2022/04/24 05:03:35;;;;;;;27.60;19.30;;;10.50;99.90;;;;;;5088750;28;20521;-68
2022/04/24 05:06:02;;;;;;;26.42;18.77;;;10.50;99.90;;;;;;5086360;28;20063;-67
2022/04/24 05:08:29;;;;;;;25.50;19.00;;;10.60;99.90;;;;;;5092278;28;20418;-67
2022/04/24 05:10:57;;;;;;;24.52;18.00;;;10.50;99.90;;;;;;5107728;28;20354;-67
2022/04/24 05:13:24;;;;;;;25.85;18.77;;;10.50;99.90;;;;;;5106653;28;20038;-67
2022/04/24 05:15:51;;;;;;;28.00;18.92;;;10.40;99.90;;;;;;5111224;28;20459;-67
2022/04/24 05:18:19;;;;;;;27.13;19.23;;;10.50;99.90;;;;;;5100467;28;20440;-67
2022/04/24 05:20:46;;;;;;;27.58;19.60;;;10.50;99.90;;;;;;5099357;28;20035;-67
2022/04/24 05:23:13;;;;;;;28.27;20.05;;;10.50;99.90;;;;;;5101770;28;20044;-66
2022/04/24 05:25:41;;;;;;;26.27;19.65;;;10.60;99.90;;;;;;5104928;28;20036;-66
2022/04/24 05:28:08;;;;;;;28.70;20.38;;;10.60;99.90;;;;;;5104351;28;20040;-66
2022/04/24 05:30:35;;;;;;;29.75;19.90;;;10.70;99.90;;;;;;5107761;28;20045;-67
2022/04/24 05:33:02;;;;;;;34.70;23.08;;;10.80;99.90;;;;;;5108888;28;20048;-67
2022/04/24 05:35:30;;;;;;;24.58;18.08;;;10.80;99.90;;;;;;5098197;28;20046;-66
2022/04/24 05:37:57;;;;;;;29.05;20.15;;;10.80;99.90;;;;;;5104792;27;20044;-66
2022/04/24 05:40:24;;;;;;;27.40;18.92;;;10.70;99.90;;;;;;5110870;27;20044;-67
2022/04/24 05:42:53;;;;;;;29.23;20.02;;;10.80;99.90;;;;;;5117506;27;20039;-67
2022/04/24 05:45:24;;;;;;;24.75;17.58;;;10.80;99.90;;;;;;5109561;28;20084;-67
2022/04/24 05:47:56;;;;;;;30.38;20.85;;;10.80;99.90;;;;;;5109304;27;20416;-67
2022/04/24 05:50:25;;;;;;;33.77;20.93;;;10.90;99.90;;;;;;5109807;28;20047;-67
2022/04/24 05:52:56;;;;;;;28.13;20.15;;;10.80;99.90;;;;;;5110847;28;20858;-67
2022/04/24 05:55:24;;;;;;;32.67;21.10;;;10.80;99.90;;;;;;5109454;27;20055;-67
2022/04/24 05:57:52;;;;;;;31.30;22.83;;;10.90;99.90;;;;;;5112018;27;20036;-66
2022/04/24 06:00:21;;;;;;;31.58;23.08;;;10.90;99.90;;;;;;5099723;28;20067;-67
2022/04/24 06:02:52;;;;;;;30.48;22.48;;;10.80;99.90;;;;;;5086354;28;20043;-67
2022/04/24 06:05:20;;;;;;;38.20;24.27;;;10.80;99.90;;;;;;5089852;28;20496;-66
2022/04/24 06:07:48;;;;;;;33.42;23.10;;;10.80;99.90;;;;;;5087548;28;20631;-66
2022/04/24 06:10:15;;;;;;;32.53;22.13;;;10.90;99.90;;;;;;5090719;28;20113;-66
2022/04/24 06:12:49;;;;;;;26.65;19.70;;;10.90;99.90;;;;;;5095709;28;20054;-67
2022/04/24 06:15:20;;;;;;;31.17;21.08;;;10.90;99.90;;;;;;5092479;28;20507;-67
2022/04/24 06:17:50;;;;;;;29.55;20.52;;;10.90;99.90;;;;;;5091021;28;20071;-66
2022/04/24 06:20:18;;;;;;;29.23;20.52;;;10.90;99.90;;;;;;5089314;28;20047;-66
2022/04/24 06:22:48;;;;;;;32.33;22.85;;;10.90;99.90;;;;;;5090482;28;20046;-66
2022/04/24 06:25:20;;;;;;;39.53;25.40;;;10.90;99.90;;;;;;5093376;28;20033;-66
2022/04/24 06:27:48;;;;;;;35.45;24.10;;;10.80;99.90;;;;;;5098014;28;20203;-66
2022/04/24 06:30:17;;;;;;;31.23;21.70;;;10.90;99.90;;;;;;5091025;28;20612;-66
2022/04/24 06:32:45;;;;;;;33.72;23.05;;;10.80;99.90;;;;;;5090697;28;20099;-66
2022/04/24 06:35:15;;;;;;;31.48;22.35;;;10.80;99.90;;;;;;5095433;28;20074;-67
2022/04/24 06:37:44;;;;;;;28.48;19.85;;;10.80;99.90;;;;;;5088596;28;20046;-66
2022/04/24 06:40:13;;;;;;;29.27;21.40;;;10.70;99.90;;;;;;5093688;28;20071;-66
2022/04/24 06:42:54;;;;;;;31.52;22.02;;;10.80;99.90;;;;;;5092618;28;20494;-67
2022/04/24 06:45:33;;;;;;;33.78;23.42;;;10.80;99.90;;;;;;5096057;28;20040;-66
2022/04/24 06:48:04;;;;;;;45.42;29.73;;;10.80;99.90;;;;;;5095358;28;20039;-67
2022/04/24 06:50:33;;;;;;;38.63;26.58;;;10.80;99.90;;;;;;5100677;28;20051;-68
2022/04/24 06:53:01;;;;;;;34.67;24.60;;;10.80;99.90;;;;;;5100780;28;20046;-67
2022/04/24 06:55:31;;;;;;;37.40;24.33;;;10.80;99.90;;;;;;5079632;28;20058;-67
2022/04/24 06:58:00;;;;;;;33.95;24.02;;;10.90;99.90;;;;;;5110019;28;20057;-67
2022/04/24 07:00:29;;;;;;;32.13;22.75;;;10.80;99.90;;;;;;5100215;28;20556;-68
2022/04/24 07:03:24;;;;;;;32.03;22.45;;;10.90;99.90;;;;;;5088156;28;20541;-67
2022/04/24 07:05:56;;;;;;;34.00;22.35;;;10.80;99.90;;;;;;5086944;28;20046;-67
2022/04/24 07:08:24;;;;;;;34.38;23.58;;;10.80;99.90;;;;;;5089555;28;20071;-67
2022/04/24 07:10:55;;;;;;;34.15;24.48;;;10.80;99.90;;;;;;5100180;28;20111;-67
2022/04/24 07:13:22;;;;;;;35.53;24.30;;;10.80;99.90;;;;;;5091601;28;20106;-66
2022/04/24 07:15:51;;;;;;;37.08;25.40;;;10.70;99.90;;;;;;5104492;28;20051;-67
2022/04/24 07:18:20;;;;;;;33.20;22.35;;;10.70;99.90;;;;;;5102084;28;20074;-66
2022/04/24 07:20:47;;;;;;;31.40;22.38;;;10.70;99.90;;;;;;5102453;27;20047;-67
2022/04/24 07:23:15;;;;;;;34.85;24.13;;;10.70;99.90;;;;;;5117853;27;20112;-66
2022/04/24 07:25:44;;;;;;;31.25;22.33;;;10.70;99.90;;;;;;5103749;28;20036;-66
2022/04/24 07:28:15;;;;;;;35.92;24.27;;;10.60;99.90;;;;;;5094212;28;20051;-67
2022/04/24 07:30:43;;;;;;;35.70;24.67;;;10.50;99.90;;;;;;5097538;28;20406;-67
2022/04/24 07:33:11;;;;;;;31.77;23.23;;;10.40;99.90;;;;;;5100453;28;20114;-67
2022/04/24 07:35:40;;;;;;;33.55;23.65;;;10.40;99.90;;;;;;5099874;28;20055;-66
2022/04/24 07:38:08;;;;;;;34.45;24.00;;;10.30;99.90;;;;;;5106210;28;20054;-66
2022/04/24 07:40:37;;;;;;;34.40;22.55;;;10.20;99.90;;;;;;5111405;28;20058;-67
2022/04/24 07:43:06;;;;;;;33.10;22.83;;;10.20;99.90;;;;;;5112353;28;20382;-68
2022/04/24 07:45:39;;;;;;;31.60;22.48;;;10.20;99.90;;;;;;5110198;27;20138;-66
2022/04/24 07:48:09;;;;;;;24.63;17.30;;;10.00;99.90;;;;;;5092069;28;20247;-66
2022/04/24 07:50:39;;;;;;;22.98;16.33;;;9.90;99.90;;;;;;5106810;28;20470;-65
2022/04/24 07:53:08;;;;;;;19.55;14.10;;;9.80;99.90;;;;;;5099353;28;20039;-66
2022/04/24 07:55:35;;;;;;;17.33;11.32;;;9.70;99.90;;;;;;5097298;28;20541;-64
2022/04/24 07:58:03;;;;;;;13.70;8.77;;;9.50;99.90;;;;;;5098727;27;20474;-66
2022/04/24 08:00:32;;;;;;;10.77;6.55;;;9.40;99.90;;;;;;5093549;28;20054;-66
2022/04/24 08:03:01;;;;;;;10.27;5.80;;;9.10;99.90;;;;;;5100531;28;20151;-66
2022/04/24 08:05:40;;;;;;;8.95;6.10;;;8.90;99.90;;;;;;5094736;28;20498;-67
2022/04/24 08:08:10;;;;;;;8.73;5.35;;;8.90;99.90;;;;;;5092319;28;20067;-65
2022/04/24 08:10:40;;;;;;;10.25;4.75;;;8.80;99.90;;;;;;5095230;28;20044;-65
2022/04/24 08:13:08;;;;;;;8.13;4.78;;;8.70;99.90;;;;;;5093309;28;20467;-65
2022/04/24 08:15:42;;;;;;;9.95;5.40;;;8.60;99.90;;;;;;5091928;28;20132;-65
2022/04/24 08:18:10;;;;;;;7.47;4.28;;;8.70;99.90;;;;;;5091414;28;20044;-65
2022/04/24 08:20:40;;;;;;;7.25;4.38;;;8.70;99.90;;;;;;5095278;27;20097;-66
2022/04/24 08:23:08;;;;;;;7.00;4.28;;;8.80;99.90;;;;;;5098259;27;20042;-65
2022/04/24 08:25:37;;;;;;;6.25;3.83;;;8.80;99.90;;;;;;5093484;28;20454;-65
2022/04/24 08:28:08;;;;;;;7.55;3.88;;;8.90;99.90;;;;;;5094976;28;20050;-65
2022/04/24 08:30:40;;;;;;;4.97;2.85;;;8.80;99.90;;;;;;5107490;27;20459;-66
2022/04/24 08:33:09;;;;;;;7.10;3.17;;;8.80;99.90;;;;;;5101134;28;20116;-65
2022/04/24 08:35:37;;;;;;;4.78;2.25;;;8.80;99.90;;;;;;5101796;28;20394;-66
2022/04/24 08:38:04;;;;;;;4.25;2.50;;;8.80;99.90;;;;;;5113660;27;20478;-65
2022/04/24 08:40:32;;;;;;;4.72;2.00;;;8.80;99.90;;;;;;5107031;27;20042;-68
2022/04/24 08:43:00;;;;;;;5.03;2.20;;;8.70;99.90;;;;;;5091121;27;20112;-66
2022/04/24 08:45:30;;;;;;;5.53;2.50;;;8.70;99.90;;;;;;5095559;28;20055;-66
2022/04/24 08:47:58;;;;;;;3.95;2.17;;;8.70;99.90;;;;;;5084421;28;20044;-65
2022/04/24 08:50:31;;;;;;;4.03;2.13;;;8.60;99.90;;;;;;5094783;28;20518;-64
2022/04/24 08:52:58;;;;;;;;;;;8.60;99.90;;;;;;5092168;28;20525;-65
2022/04/24 08:55:28;;;;;;;3.13;1.80;;;8.70;99.90;;;;;;5098298;27;20374;-65
2022/04/24 08:57:57;;;;;;;5.75;2.40;;;8.70;99.90;;;;;;5100701;27;20502;-65
2022/04/24 09:00:27;;;;;;;3.17;1.77;;;8.80;99.90;;;;;;5094793;28;20092;-65
2022/04/24 09:02:57;;;;;;;3.30;1.60;;;8.80;99.90;;;;;;5094865;28;20044;-66
2022/04/24 09:05:26;;;;;;;5.22;1.92;;;8.90;99.90;;;;;;5096739;28;20040;-66
2022/04/24 09:08:04;;;;;;;5.07;2.20;;;8.90;99.90;;;;;;5102052;28;20047;-66
2022/04/24 09:10:59;;;;;;;4.55;1.80;;;9.10;99.90;;;;;;5092884;28;20518;-66
2022/04/24 09:14:14;;;;;;;4.78;1.60;;;9.10;99.90;;;;;;5092663;28;20499;-66
2022/04/24 09:16:38;;;;;;;7.80;1.98;;;9.20;99.90;;;;;;5091892;28;20379;-66
2022/04/24 09:19:16;;;;;;;2.80;1.30;;;9.10;99.90;;;;;;5098067;28;20051;-65
2022/04/24 09:21:44;;;;;;;5.53;2.15;;;9.00;99.90;;;;;;5093284;28;20055;-65
2022/04/24 09:24:12;;;;;;;2.67;1.10;;;9.00;99.90;;;;;;5095164;28;20051;-66
2022/04/24 09:26:52;;;;;;;1.85;1.10;;;9.20;99.90;;;;;;5091388;28;20062;-65
2022/04/24 09:29:23;;;;;;;2.58;1.08;;;9.20;99.90;;;;;;5093581;28;20036;-66
2022/04/24 09:31:51;;;;;;;2.58;1.15;;;9.30;99.90;;;;;;5090756;28;20169;-65
2022/04/24 09:34:20;;;;;;;4.22;1.85;;;9.60;99.90;;;;;;5097748;28;20040;-66
2022/04/24 09:37:03;;;;;;;2.88;1.23;;;10.10;99.90;;;;;;5095949;28;20534;-66
2022/04/24 09:39:33;;;;;;;2.88;1.00;;;10.20;99.90;;;;;;5093570;28;20097;-66
2022/04/24 09:42:11;;;;;;;2.25;1.00;;;10.70;99.90;;;;;;5093664;28;20627;-65
2022/04/24 09:44:50;;;;;;;1.60;0.70;;;11.00;99.90;;;;;;5089985;28;20040;-65
2022/04/24 09:47:42;;;;;;;2.58;1.30;;;11.00;99.90;;;;;;5101421;28;20050;-66
2022/04/24 09:50:12;;;;;;;2.33;1.23;;;11.20;99.90;;;;;;5090632;28;20047;-66
2022/04/24 09:52:45;;;;;;;2.25;0.90;;;11.80;99.90;;;;;;5091452;28;20494;-65
2022/04/24 09:55:14;;;;;;;1.67;0.90;;;11.80;99.90;;;;;;5091197;28;20418;-66
2022/04/24 09:57:43;;;;;;;2.22;0.82;;;12.10;99.90;;;;;;5094466;28;20073;-66
2022/04/24 10:00:11;;;;;;;1.80;0.70;;;12.10;99.90;;;;;;5088027;28;20578;-66
2022/04/24 10:02:41;;;;;;;1.23;0.80;;;11.70;99.90;;;;;;5091875;28;20130;-64
2022/04/24 10:05:09;;;;;;;2.65;1.23;;;11.70;99.90;;;;;;5097462;28;20050;-65
2022/04/24 10:07:37;;;;;;;2.83;1.20;;;11.50;99.90;;;;;;5106445;28;20032;-66
2022/04/24 10:10:06;;;;;;;2.17;0.95;;;11.70;99.90;;;;;;5099445;28;20087;-66
2022/04/24 10:12:46;;;;;;;1.95;0.98;;;11.50;99.90;;;;;;5097219;28;20044;-66
2022/04/24 10:15:17;;;;;;;1.42;0.90;;;11.50;99.90;;;;;;5093119;28;20509;-65
2022/04/24 10:18:22;;;;;;;3.55;1.20;;;11.80;99.90;;;;;;5094164;28;20050;-66
2022/04/24 10:21:13;;;;;;;3.10;1.42;;;12.30;99.90;;;;;;5097392;28;20077;-66
2022/04/24 10:23:41;;;;;;;2.55;1.02;;;12.70;99.90;;;;;;5106438;28;20486;-65
2022/04/24 10:26:22;;;;;;;2.50;1.05;;;12.90;99.90;;;;;;5108093;28;20074;-67
2022/04/24 10:29:00;;;;;;;3.10;1.33;;;13.20;99.90;;;;;;5109321;28;20541;-67
2022/04/24 10:31:27;;;;;;;2.55;1.15;;;13.40;99.90;;;;;;5106256;28;20043;-66
2022/04/24 10:33:55;;;;;;;2.85;1.20;;;13.80;99.90;;;;;;5104114;28;20049;-66
2022/04/24 10:36:23;;;;;;;2.95;1.50;;;13.70;99.90;;;;;;5090513;28;20084;-65
2022/04/24 10:38:53;;;;;;;3.67;1.35;;;13.80;99.90;;;;;;5090208;28;20047;-66
2022/04/24 10:41:52;;;;;;;2.58;1.20;;;13.80;99.90;;;;;;5091159;28;20031;-64
2022/04/24 10:44:19;;;;;;;3.67;1.20;;;13.70;99.90;;;;;;5096672;28;20154;-67
2022/04/24 10:46:48;;;;;;;2.05;1.33;;;13.60;99.90;;;;;;5098880;28;20131;-66
2022/04/24 10:49:18;;;;;;;3.08;1.88;;;13.50;99.90;;;;;;5088609;28;20417;-67
2022/04/24 10:51:58;;;;;;;4.43;2.20;;;13.30;99.90;;;;;;5076441;28;20079;-66
2022/04/24 10:54:36;;;;;;;3.92;1.90;;;13.10;99.90;;;;;;5097242;28;20412;-67
2022/04/24 10:57:23;;;;;;;3.65;1.60;;;13.00;99.90;;;;;;5094301;28;20051;-66
2022/04/24 10:59:55;;;;;;;3.78;1.92;;;12.80;99.90;;;;;;5098326;28;20070;-67
2022/04/24 11:02:35;;;;;;;3.95;1.88;;;12.50;99.90;;;;;;5092220;28;20071;-65
2022/04/24 11:05:06;;;;;;;3.35;1.63;;;12.40;99.90;;;;;;5095350;28;20563;-67
2022/04/24 11:07:34;;;;;;;3.92;1.67;;;12.20;99.90;;;;;;5090809;28;20043;-66
2022/04/24 11:10:10;;;;;;;4.68;1.50;;;12.10;99.90;;;;;;5095759;28;20555;-67
2022/04/24 11:12:39;;;;;;;3.25;1.80;;;11.90;99.90;;;;;;5103698;28;20051;-66
2022/04/24 11:15:12;;;;;;;5.40;2.55;;;11.90;99.90;;;;;;5106088;28;20430;-67
2022/04/24 11:17:40;;;;;;;4.72;2.03;;;11.70;99.90;;;;;;5099580;28;20093;-67
2022/04/24 11:20:13;;;;;;;6.22;2.67;;;11.70;99.90;;;;;;5109310;27;20514;-68
2022/04/24 11:22:52;;;;;;;6.22;2.40;;;11.60;99.90;;;;;;5095722;27;20548;-67
2022/04/24 11:25:25;;;;;;;3.75;1.67;;;11.70;99.90;;;;;;5100226;28;20503;-67
2022/04/24 11:27:57;;;;;;;4.55;1.98;;;11.40;99.90;;;;;;5112344;27;20049;-68
2022/04/24 11:30:28;;;;;;;;;;;11.40;99.90;;;;;;5109030;28;20548;-67
2022/04/24 11:32:57;;;;;;;3.38;1.50;;;11.30;99.90;;;;;;5107587;28;20324;-68
2022/04/24 11:35:30;;;;;;;3.25;1.70;;;11.20;99.90;;;;;;5108130;28;20510;-68
2022/04/24 11:37:58;;;;;;;4.28;1.70;;;11.10;99.90;;;;;;5111848;27;20139;-67
2022/04/24 11:40:25;;;;;;;5.85;2.15;;;11.00;99.90;;;;;;5101516;27;20075;-67
2022/04/24 11:43:15;;;;;;;2.92;1.50;;;11.20;99.90;;;;;;5108142;28;20044;-68
2022/04/24 11:51:31;;;;;;;3.30;1.40;;;11.00;99.90;;;;;;5107909;28;20065;-68
2022/04/24 11:54:11;;;;;;;2.60;1.27;;;10.90;99.90;;;;;;5107000;27;20494;-67
2022/04/24 11:56:39;;;;;;;;;;;10.90;99.90;;;;;;5104968;28;20059;-67
2022/04/24 11:59:15;;;;;;;2.92;1.30;;;10.90;99.90;;;;;;5105542;27;19926;-68
2022/04/24 12:01:55;;;;;;;2.63;1.30;;;10.90;99.90;;;;;;5109954;28;20103;-68
2022/04/24 12:04:28;;;;;;;2.65;1.30;;;10.90;99.90;;;;;;5099717;28;20105;-68
2022/04/24 12:07:07;;;;;;;4.60;2.08;;;10.90;99.90;;;;;;5092358;28;20040;-68
2022/04/24 12:09:36;;;;;;;2.70;1.20;;;10.90;99.90;;;;;;5105490;28;20527;-68
2022/04/24 12:12:14;;;;;;;2.15;0.95;;;10.90;99.90;;;;;;5091530;28;20562;-69
2022/04/24 12:14:48;;;;;;;2.17;1.10;;;10.90;99.90;;;;;;5090526;28;20074;-68
2022/04/24 12:17:15;;;;;;;4.47;1.13;;;10.80;99.90;;;;;;5099167;28;20459;-67
2022/04/24 12:19:50;;;;;;;2.50;1.13;;;10.80;99.90;;;;;;5113256;28;20123;-68
2022/04/24 12:22:30;;;;;;;3.42;1.50;;;10.90;99.90;;;;;;5096929;28;20108;-69
2022/04/24 12:25:12;;;;;;;2.45;1.10;;;10.80;99.90;;;;;;5102241;27;20043;-68
2022/04/24 12:27:50;;;;;;;3.70;1.20;;;10.80;99.90;;;;;;5110497;27;20150;-68
2022/04/24 12:30:17;;;;;;;5.35;1.33;;;10.90;99.90;;;;;;5101353;28;20051;-68
2022/04/24 12:32:45;;;;;;;2.55;1.20;;;10.80;99.90;;;;;;5102963;28;20114;-68
2022/04/24 12:35:33;;;;;;;2.25;1.20;;;10.70;99.90;;;;;;5106157;28;20578;-67
2022/04/24 12:38:12;;;;;;;3.00;1.20;;;10.60;99.90;;;;;;5099545;28;20922;-68
2022/04/24 12:40:39;;;;;;;2.42;1.23;;;10.60;99.90;;;;;;5093307;28;20039;-68
2022/04/24 12:43:06;;;;;;;4.07;1.30;;;10.70;99.90;;;;;;5093981;28;20115;-69
2022/04/24 12:45:34;;;;;;;2.42;1.40;;;10.80;99.90;;;;;;5108499;27;20523;-68
2022/04/24 12:48:01;;;;;;;2.70;1.33;;;10.70;99.90;;;;;;5091980;28;20073;-66
2022/04/24 12:50:28;;;;;;;4.10;1.27;;;10.80;99.90;;;;;;5101755;28;20574;-67
2022/04/24 12:52:56;;;;;;;2.95;1.40;;;10.80;99.90;;;;;;5091296;28;20068;-67
2022/04/24 12:55:23;;;;;;;3.13;1.40;;;10.80;99.90;;;;;;5094357;28;20050;-67
2022/04/24 12:57:54;;;;;;;3.60;1.50;;;10.80;99.90;;;;;;5093038;27;20459;-68
2022/04/24 13:00:21;;;;;;;3.03;1.70;;;10.80;99.90;;;;;;5091369;28;20039;-68